Time;durP1;ratioP1;P1;durP2;ratioP2;P2;SDS_P1;SDS_P2;PMS_P1;PMS_P2;Temp;Humidity;BMP_temperature;BMP_pressure;BME280_temperature;BME280_humidity;BME280_pressure;Samples;Min_cycle;Max_cycle;Signal;HPM_P1;HPM_P2
2022/05/27 18:42:38;;;;;;;5.40;2.40;;;;;;;11.93;55.73;98650.87;106162;1267;97713;-69
2022/05/27 18:45:08;;;;;;;6.20;3.00;;;;;;;11.94;55.85;98658.83;105887;1274;112587;-71
2022/05/27 18:47:36;;;;;;;6.90;3.10;;;;;;;11.94;56.06;98662.17;106046;1274;95179;-73
2022/05/27 18:50:06;;;;;;;7.40;2.80;;;;;;;11.94;56.08;98668.54;105877;1274;107575;-71
2022/05/27 18:52:35;;;;;;;5.40;2.80;;;;;;;11.96;56.35;98669.65;106133;1274;97876;-70
2022/05/27 18:55:08;;;;;;;4.90;2.60;;;;;;;11.98;56.32;98681.05;106097;1274;97972;-69
2022/05/27 18:57:37;;;;;;;3.10;2.40;;;;;;;11.97;56.39;98695.44;106142;1274;111554;-70
2022/05/27 19:00:09;;;;;;;7.10;3.00;;;;;;;11.97;56.19;98701.36;105825;1277;96624;-68
2022/05/27 19:02:37;;;;;;;5.30;3.00;;;;;;;11.94;56.47;98705.13;106429;1274;108072;-68
2022/05/27 19:05:08;;;;;;;7.60;2.50;;;;;;;11.94;56.56;98707.79;105903;1274;97976;-68
2022/05/27 19:07:42;;;;;;;5.30;2.90;;;;;;;11.95;56.65;98709.54;105999;1274;96368;-69
2022/05/27 19:10:16;;;;;;;5.30;2.80;;;;;;;11.94;56.67;98710.52;105848;1274;112114;-69
2022/05/27 19:12:46;;;;;;;4.40;2.60;;;;;;;11.92;56.50;98704.27;105975;1274;96246;-68
2022/05/27 19:15:17;;;;;;;4.60;2.70;;;;;;;11.88;56.59;98700.48;105892;1273;108379;-68
2022/05/27 19:17:45;;;;;;;5.30;2.80;;;;;;;11.86;56.84;98701.36;105977;1274;96988;-69
2022/05/27 19:23:03;;;;;;;5.90;2.90;;;;;;;11.84;56.86;98715.08;106021;1274;112033;-69
2022/05/27 19:25:31;;;;;;;5.10;2.60;;;;;;;11.80;57.00;98707.77;106035;1274;97881;-68
2022/05/27 19:28:01;;;;;;;6.10;2.60;;;;;;;11.78;57.02;98706.51;106051;1274;107726;-68
2022/05/27 19:30:28;;;;;;;6.60;2.90;;;;;;;11.78;57.04;98707.91;105905;1274;97179;-69
2022/05/27 19:32:57;;;;;;;6.60;3.20;;;;;;;11.78;57.17;98711.09;106003;1274;97504;-66
2022/05/27 19:35:26;;;;;;;6.30;2.70;;;;;;;11.79;57.37;98703.55;106188;1274;111937;-68
2022/05/27 19:37:55;;;;;;;9.80;3.30;;;;;;;11.80;57.37;98684.52;106044;1274;96351;-68
2022/05/27 19:40:25;;;;;;;4.10;2.50;;;;;;;11.80;57.47;98677.93;105998;1274;108431;-67
2022/05/27 19:42:54;;;;;;;6.00;2.80;;;;;;;11.80;57.52;98685.70;106067;1274;98021;-69
2022/05/27 19:45:24;;;;;;;6.60;2.80;;;;;;;11.81;57.46;98681.42;106076;1274;97867;-67
2022/05/27 19:47:54;;;;;;;8.80;2.90;;;;;;;11.82;57.64;98677.25;106020;1274;111100;-66
2022/05/27 19:50:23;;;;;;;5.90;2.70;;;;;;;11.83;57.69;98661.46;106161;1274;96987;-66
2022/05/27 19:52:55;;;;;;;7.00;3.20;;;;;;;11.84;57.69;98663.50;105964;1274;108594;-67
2022/05/27 19:55:27;;;;;;;7.60;3.10;;;;;;;11.86;57.85;98675.99;105977;1275;97953;-68
2022/05/27 20:00:41;;;;;;;8.90;3.30;;;;;;;11.82;57.91;98659.05;106145;1274;110403;-67
2022/05/27 20:05:58;;;;;;;9.70;3.30;;;;;;;11.77;57.91;98670.34;106132;1274;108332;-66
2022/05/27 20:08:26;;;;;;;6.70;3.20;;;;;;;11.74;57.91;98671.44;105992;1274;97904;-67
2022/05/27 20:11:06;;;;;;;8.80;3.10;;;;;;;11.72;58.07;98673.77;106122;1274;97892;-67
2022/05/27 20:13:42;;;;;;;6.40;3.10;;;;;;;11.69;58.03;98659.30;106056;1274;111642;-67
2022/05/27 20:16:13;;;;;;;5.80;3.20;;;;;;;11.68;58.13;98663.27;105979;1274;96538;-68
2022/05/27 20:18:43;;;;;;;7.40;3.10;;;;;;;11.65;58.20;98664.41;106023;1275;108410;-67
2022/05/27 20:21:15;;;;;;;13.70;5.50;;;;;;;11.62;58.11;98667.30;105959;1274;96603;-68
2022/05/27 20:23:44;;;;;;;5.60;3.40;;;;;;;11.58;58.24;98669.55;105972;1275;95399;-67
2022/05/27 20:26:12;;;;;;;6.70;2.90;;;;;;;11.55;58.27;98672.83;107844;1273;111283;-66
2022/05/27 20:28:40;;;;;;;8.30;3.10;;;;;;;11.52;58.22;98677.52;107239;1274;97926;-67
2022/05/27 20:31:08;;;;;;;7.30;3.20;;;;;;;11.51;58.28;98672.87;107813;1273;107977;-67
2022/05/27 20:33:37;;;;;;;7.60;3.20;;;;;;;11.48;58.40;98673.63;106532;1274;97882;-67
2022/05/27 20:38:54;;;;;;;8.00;2.90;;;;;;;11.42;58.50;98680.84;106032;1274;112806;-68
2022/05/27 20:41:24;;;;;;;6.50;3.10;;;;;;;11.37;58.58;98678.41;106108;1274;97993;-66
2022/05/27 20:43:57;;;;;;;4.90;2.60;;;;;;;11.35;58.57;98678.80;105988;1274;107398;-66
2022/05/27 20:46:27;;;;;;;6.10;2.80;;;;;;;11.31;58.50;98672.70;106100;1274;97874;-67
2022/05/27 20:49:01;;;;;;;4.80;2.90;;;;;;;11.27;58.72;98682.23;106189;1274;97965;-68
2022/05/27 20:51:30;;;;;;;7.10;3.00;;;;;;;11.25;58.82;98679.89;106126;1274;112062;-67
2022/05/27 20:54:03;;;;;;;8.70;3.10;;;;;;;11.25;58.84;98682.25;106118;1274;95272;-64
2022/05/27 20:56:42;;;;;;;4.50;2.90;;;;;;;11.20;58.74;98675.17;106091;1274;107775;-67
2022/05/27 20:59:15;;;;;;;5.90;2.80;;;;;;;11.16;58.92;98664.50;106087;1274;97880;-65
2022/05/27 21:01:48;;;;;;;4.50;2.30;;;;;;;11.14;59.04;98657.66;106098;1274;96995;-67
2022/05/27 21:04:22;;;;;;;6.00;2.90;;;;;;;11.13;59.17;98658.84;106091;1274;109995;-65
2022/05/27 21:06:51;;;;;;;7.20;3.40;;;;;;;11.13;59.14;98649.09;106094;1274;97935;-66
2022/05/27 21:09:19;;;;;;;6.40;2.70;;;;;;;11.15;59.25;98652.67;106038;1274;108381;-65
2022/05/27 21:11:49;;;;;;;8.50;3.40;;;;;;;11.16;59.17;98666.46;106061;1274;97949;-67
2022/05/27 21:14:22;;;;;;;4.90;2.40;;;;;;;11.13;59.27;98670.77;106024;1274;97977;-68
2022/05/27 21:16:51;;;;;;;8.10;3.00;;;;;;;11.11;59.30;98667.01;105908;1274;111415;-66
2022/05/27 21:19:21;;;;;;;8.00;3.10;;;;;;;11.10;59.30;98664.60;106029;1274;95178;-66
2022/05/27 21:21:52;;;;;;;8.40;3.10;;;;;;;11.11;59.31;98660.09;106135;1274;108473;-68
2022/05/27 21:24:25;;;;;;;7.60;2.90;;;;;;;11.13;59.47;98666.02;106056;1274;97866;-66
2022/05/27 21:26:54;;;;;;;;;;;;;;;11.12;59.32;98670.46;106099;1274;97776;-66
2022/05/27 21:29:24;;;;;;;6.00;2.90;;;;;;;11.07;59.41;98673.35;105955;1274;112096;-65
2022/05/27 21:31:52;;;;;;;8.70;3.10;;;;;;;11.04;59.53;98674.48;105979;1274;99140;-67
2022/05/27 21:34:23;;;;;;;7.40;3.20;;;;;;;11.03;59.54;98673.89;105983;1274;108393;-66
2022/05/27 21:36:53;;;;;;;6.70;3.40;;;;;;;11.03;59.62;98669.05;105958;1274;97876;-66
2022/05/27 21:39:23;;;;;;;7.80;3.30;;;;;;;11.04;59.58;98671.67;106000;1274;98081;-67
2022/05/27 21:41:55;;;;;;;10.50;4.50;;;;;;;11.04;59.67;98670.79;106079;1274;111759;-66
2022/05/27 21:44:23;;;;;;;9.90;3.70;;;;;;;11.04;59.73;98671.88;106076;1274;98444;-65
2022/05/27 21:46:52;;;;;;;8.70;3.20;;;;;;;11.06;59.98;98672.57;106015;1276;108496;-65
2022/05/27 21:49:21;;;;;;;8.50;3.20;;;;;;;11.07;59.76;98668.05;106055;1274;97896;-66
2022/05/27 21:51:49;;;;;;;9.10;3.20;;;;;;;11.07;59.78;98664.58;106050;1274;97937;-66
2022/05/27 21:54:17;;;;;;;6.00;3.00;;;;;;;11.06;59.92;98657.90;106061;1274;111872;-65
2022/05/27 21:56:46;;;;;;;8.40;3.20;;;;;;;11.06;59.83;98655.77;106056;1275;97896;-66
2022/05/27 21:59:15;;;;;;;10.70;3.10;;;;;;;11.03;60.00;98658.77;106088;1275;108462;-65
2022/05/27 22:01:43;;;;;;;7.80;3.40;;;;;;;11.03;59.98;98659.66;106104;1275;97908;-65
2022/05/27 22:04:14;;;;;;;8.80;3.30;;;;;;;11.04;60.02;98659.83;106183;1274;97758;-68
2022/05/27 22:06:44;;;;;;;7.80;3.00;;;;;;;11.03;60.12;98662.15;106142;1274;111880;-66
2022/05/27 22:12:42;;;;;;;5.80;3.30;;;;;;;11.04;60.17;98663.16;106071;1274;97860;-67
2022/05/27 22:14:54;;;;;;;7.30;3.30;;;;;;;11.02;60.14;98660.98;106090;1274;97961;-66
2022/05/27 22:17:23;;;;;;;8.50;2.90;;;;;;;10.99;60.19;98663.20;106096;1274;95299;-66
2022/05/27 22:19:52;;;;;;;8.00;3.60;;;;;;;10.97;60.34;98665.69;106107;1274;110997;-66
2022/05/27 22:22:23;;;;;;;6.30;2.90;;;;;;;10.97;60.27;98663.00;106130;1274;97964;-67
2022/05/27 22:24:52;;;;;;;6.20;2.90;;;;;;;10.96;60.22;98666.66;106016;1274;108362;-65
2022/05/27 22:27:24;;;;;;;6.20;3.10;;;;;;;10.93;60.19;98664.24;106061;1274;97952;-66
2022/05/27 22:29:51;;;;;;;7.60;3.10;;;;;;;10.91;60.28;98663.10;106132;1274;97924;-66
2022/05/27 22:32:27;;;;;;;8.50;3.00;;;;;;;10.91;60.35;98665.08;105990;1274;112006;-67
2022/05/27 22:34:59;;;;;;;8.20;3.50;;;;;;;10.90;60.42;98665.83;105883;1274;96509;-68
2022/05/27 22:37:31;;;;;;;7.60;3.20;;;;;;;10.90;60.41;98667.27;105986;1274;107696;-66
2022/05/27 22:40:02;;;;;;;6.80;3.40;;;;;;;10.90;60.62;98665.37;105932;1274;98976;-67
2022/05/27 22:42:29;;;;;;;7.40;3.20;;;;;;;10.91;60.65;98659.09;106014;1274;97939;-68
2022/05/27 22:45:00;;;;;;;9.30;4.30;;;;;;;10.91;60.63;98656.18;106033;1274;111347;-66
2022/05/27 22:47:30;;;;;;;10.20;3.30;;;;;;;10.91;60.84;98653.38;106014;1274;97899;-66
2022/05/27 22:50:00;;;;;;;5.60;3.30;;;;;;;10.93;60.78;98647.94;106081;1274;107692;-66
2022/05/27 22:52:28;;;;;;;5.50;3.00;;;;;;;10.94;60.68;98639.65;105933;1276;97748;-67
2022/05/27 22:54:57;;;;;;;5.70;3.20;;;;;;;10.95;60.80;98646.70;106037;1277;97937;-66
2022/05/27 22:57:27;;;;;;;5.60;3.10;;;;;;;10.96;60.87;98645.34;105982;1274;112593;-67
2022/05/27 23:00:01;;;;;;;7.50;2.80;;;;;;;10.97;60.90;98647.56;106109;1274;97887;-65
2022/05/27 23:02:29;;;;;;;8.10;3.30;;;;;;;10.97;60.89;98646.86;106044;1274;107741;-65
2022/05/27 23:04:57;;;;;;;7.40;2.70;;;;;;;10.96;60.89;98643.73;105946;1277;97905;-65
2022/05/27 23:07:27;;;;;;;8.20;3.10;;;;;;;10.96;60.85;98643.21;105956;1274;96325;-66
2022/05/27 23:09:55;;;;;;;9.90;3.30;;;;;;;10.96;61.03;98639.91;106037;1274;111990;-67
2022/05/27 23:18:20;;;;;;;5.40;2.90;;;;;;;11.00;61.13;98638.27;105996;1274;97875;-68
2022/05/27 23:20:52;;;;;;;6.00;2.90;;;;;;;11.00;61.10;98633.98;105956;1274;96588;-66
2022/05/27 23:23:24;;;;;;;7.40;3.50;;;;;;;11.01;61.15;98632.50;105976;1275;111397;-67
2022/05/27 23:25:57;;;;;;;5.50;2.90;;;;;;;11.02;61.15;98630.63;106030;1274;97850;-65
2022/05/27 23:28:28;;;;;;;9.30;2.90;;;;;;;11.02;61.08;98625.33;106057;1274;108375;-66
2022/05/27 23:30:57;;;;;;;5.60;3.00;;;;;;;11.01;61.12;98625.27;106061;1275;97970;-66
2022/05/27 23:33:27;;;;;;;8.40;3.70;;;;;;;10.99;61.09;98627.21;106001;1274;97868;-67
2022/05/27 23:35:58;;;;;;;5.70;3.00;;;;;;;10.97;61.18;98627.50;106031;1275;111422;-66
2022/05/27 23:38:29;;;;;;;7.20;3.40;;;;;;;10.96;61.17;98631.30;106115;1274;97869;-66
2022/05/27 23:40:58;;;;;;;6.70;3.50;;;;;;;10.94;61.34;98633.25;106121;1274;107724;-68
2022/05/27 23:43:26;;;;;;;8.90;3.30;;;;;;;10.92;61.20;98634.30;106057;1274;97901;-68
2022/05/27 23:46:02;;;;;;;8.40;3.60;;;;;;;10.90;61.26;98637.83;106047;1274;95358;-67
2022/05/27 23:48:31;;;;;;;7.40;3.50;;;;;;;10.88;61.40;98635.84;106141;1274;112013;-66
2022/05/27 23:51:04;;;;;;;6.40;3.60;;;;;;;10.88;61.39;98631.95;106133;1277;97852;-70
2022/05/27 23:53:35;;;;;;;8.20;4.10;;;;;;;10.89;61.52;98640.09;106008;1274;107169;-70
2022/05/27 23:56:13;;;;;;;10.20;4.20;;;;;;;10.90;61.64;98641.55;106107;1274;97947;-68
2022/05/27 23:58:43;;;;;;;14.30;6.10;;;;;;;10.92;61.80;98639.08;106073;1274;97861;-66
